Henderson, Arkansas
Current Conditions -  °F | °C
As of 6:53 PM on Friday 24 Oct 2014 (Local Time) from KBPK Reporting Station
Clear Clear  
Wind Chill: 65°   Ceiling: Unl
Heat Index: 65°   Visibility: 9mi
Dew Point: 58°   Wind: 3mph
Humidity: 78%   Direction: 140°SE
Pressure: 30.06"   Gusts: NA
Location:  36.38°N, 92.23°W
Report Text: KBPK 242353Z AUTO 14003KT 9SM CLR 18/14 A3006 RMK AO2 SLP176 T01830144 10233 20183 55003
Loading
Personal Weather Stations






























Interactive Weather Map
Tropical Storm Tracking
New forecast layout! Learn more

10-Day Weather Forecast

Advertisements
Track Severe Weather on mobile